createdAt,value
2022-08-02T00:01:41.984Z,99451.06
2022-08-02T00:04:10.070Z,99449.72
2022-08-02T00:06:38.128Z,99445.03
2022-08-02T00:09:06.045Z,99440.16
2022-08-02T00:23:18.266Z,99448.00
2022-08-02T00:25:54.565Z,99448.53
2022-08-02T00:28:28.012Z,99443.34
2022-08-02T00:30:59.504Z,99444.81
2022-08-02T00:34:26.872Z,99445.91
2022-08-02T00:36:15.901Z,99453.47
2022-08-02T00:38:43.882Z,99446.16
2022-08-02T00:41:16.658Z,99451.38
2022-08-02T00:43:45.214Z,99453.25
2022-08-02T00:46:13.542Z,99457.69
2022-08-02T00:48:43.225Z,99455.88
2022-08-02T00:51:12.102Z,99450.56
2022-08-02T00:53:39.854Z,99457.34
2022-08-02T00:56:07.887Z,99461.59
2022-08-02T00:58:35.827Z,99460.09
2022-08-02T01:01:03.650Z,99463.25
2022-08-02T01:03:31.290Z,99466.84
2022-08-02T01:06:10.944Z,99459.84
2022-08-02T01:08:39.969Z,99464.50
2022-08-02T01:11:08.160Z,99464.66
2022-08-02T01:13:35.769Z,99454.53
2022-08-02T01:16:11.939Z,99454.69
2022-08-02T01:18:42.194Z,99456.06
2022-08-02T01:21:47.224Z,99456.19
2022-08-02T01:24:23.970Z,99451.38
2022-08-02T01:27:12.594Z,99448.41
2022-08-02T01:29:44.009Z,99462.69
2022-08-02T01:32:15.402Z,99466.69
2022-08-02T01:34:55.606Z,99471.09
2022-08-02T01:37:28.443Z,99461.84
2022-08-02T01:39:58.410Z,99465.00
2022-08-02T01:42:27.431Z,99469.22
2022-08-02T01:44:55.465Z,99466.78
2022-08-02T01:47:27.714Z,99470.16
2022-08-02T01:49:58.237Z,99472.47
2022-08-02T01:52:27.536Z,99472.47
2022-08-02T01:55:03.400Z,99475.03
2022-08-02T01:57:43.343Z,99484.53
2022-08-02T02:00:11.917Z,99488.53
2022-08-02T02:02:44.298Z,99483.31
2022-08-02T02:05:17.233Z,99491.94
2022-08-02T02:07:46.195Z,99492.53
2022-08-02T02:10:16.068Z,99486.25
2022-08-02T02:12:44.808Z,99496.56
2022-08-02T02:15:12.675Z,99489.22
2022-08-02T02:17:50.681Z,99491.94
2022-08-02T02:20:32.982Z,99502.47
2022-08-02T02:23:00.784Z,99499.94
2022-08-02T02:25:34.257Z,99501.62
2022-08-02T02:28:07.209Z,99499.09
2022-08-02T02:30:35.613Z,99494.88
2022-08-02T02:33:04.507Z,99490.25
2022-08-02T02:35:34.206Z,99492.59
2022-08-02T02:38:04.438Z,99492.81
2022-08-02T02:40:33.001Z,99502.69
2022-08-02T02:43:01.738Z,99505.47
2022-08-02T02:45:30.887Z,99500.59
2022-08-02T02:47:59.781Z,99505.66
2022-08-02T02:50:28.170Z,99512.38
2022-08-02T02:52:56.061Z,99515.78
2022-08-02T02:55:24.568Z,99506.50
2022-08-02T02:57:52.168Z,99498.28
2022-08-02T03:00:39.727Z,99493.03
2022-08-02T03:03:07.884Z,99493.88
2022-08-02T03:05:35.406Z,99493.06
2022-08-02T03:08:02.982Z,99496.63
2022-08-02T03:10:30.831Z,99486.94
2022-08-02T03:12:58.625Z,99479.12
2022-08-02T03:15:27.647Z,99475.59
2022-08-02T03:17:55.390Z,99483.56
2022-08-02T03:20:22.955Z,99472.44
2022-08-02T03:22:50.495Z,99473.91
2022-08-02T03:25:18.858Z,99482.72
2022-08-02T03:27:47.066Z,99485.44
2022-08-02T03:30:15.030Z,99485.06
2022-08-02T03:32:45.445Z,99489.69
2022-08-02T03:35:18.574Z,99496.38
2022-08-02T03:37:52.803Z,99497.44
2022-08-02T03:40:20.998Z,99497.63
2022-08-02T03:42:49.563Z,99499.97
2022-08-02T03:45:17.549Z,99513.19
2022-08-02T03:47:45.166Z,99501.25
2022-08-02T03:50:13.555Z,99505.00
2022-08-02T03:52:43.098Z,99496.38
2022-08-02T03:55:11.945Z,99506.69
2022-08-02T03:57:41.279Z,99501.84
2022-08-02T04:00:10.524Z,99514.69
2022-08-02T04:02:39.839Z,99515.75
2022-08-02T04:05:07.886Z,99520.81
2022-08-02T04:08:32.703Z,99519.97
2022-08-02T04:10:23.259Z,99519.53
2022-08-02T04:12:50.816Z,99512.22
2022-08-02T04:15:18.726Z,99520.37
2022-08-02T04:17:50.989Z,99529.44
2022-08-02T04:20:20.358Z,99535.31
2022-08-02T04:22:52.981Z,99526.22
2022-08-02T04:25:20.882Z,99527.31
2022-08-02T04:28:16.871Z,99529.84
2022-08-02T04:30:47.400Z,99535.06
2022-08-02T04:33:15.621Z,99538.25
2022-08-02T04:35:44.504Z,99534.94
2022-08-02T04:38:15.823Z,99535.75
2022-08-02T04:40:55.327Z,99539.56
2022-08-02T04:43:23.624Z,99533.88
2022-08-02T04:45:55.610Z,99530.88
2022-08-02T04:48:23.725Z,99527.72
2022-08-02T04:50:51.601Z,99529.59
2022-08-02T04:53:19.171Z,99529.59
2022-08-02T04:55:46.939Z,99529.19
2022-08-02T04:58:38.694Z,99538.44
2022-08-02T05:01:02.629Z,99549.13
2022-08-02T05:03:30.493Z,99548.69
2022-08-02T05:05:58.506Z,99545.50
2022-08-02T05:08:26.045Z,99554.31
2022-08-02T05:10:53.828Z,99558.94
2022-08-02T05:13:21.382Z,99558.28
2022-08-02T05:15:50.530Z,99561.38
2022-08-02T05:18:18.681Z,99551.44
2022-08-02T05:20:46.224Z,99567.19
2022-08-02T05:23:13.696Z,99566.25
2022-08-02T05:25:41.549Z,99581.75
2022-08-02T05:28:11.646Z,99576.69
2022-08-02T05:30:40.265Z,99576.53
2022-08-02T05:33:08.216Z,99580.56
2022-08-02T05:35:35.847Z,99588.44
2022-08-02T05:38:03.532Z,99584.88
2022-08-02T05:40:31.677Z,99592.06
2022-08-02T05:42:59.296Z,99585.84
2022-08-02T05:45:27.014Z,99592.56
2022-08-02T05:47:54.789Z,99592.91
2022-08-02T05:50:24.458Z,99591.66
2022-08-02T05:53:05.106Z,99589.25
2022-08-02T05:55:48.317Z,99589.75
2022-08-02T05:58:36.794Z,99601.81
2022-08-02T06:01:05.631Z,99593.69
2022-08-02T06:03:40.165Z,99587.97
2022-08-02T06:06:16.227Z,99595.88
2022-08-02T06:08:48.066Z,99591.47
2022-08-02T06:11:18.469Z,99595.31
2022-08-02T06:13:46.502Z,99603.59
2022-08-02T06:16:14.994Z,99608.28
2022-08-02T06:18:43.566Z,99599.47
2022-08-02T06:22:33.796Z,99597.94
2022-08-02T06:24:02.744Z,99593.19
2022-08-02T06:26:30.554Z,99595.28
2022-08-02T06:28:58.491Z,99600.06
2022-08-02T06:31:26.080Z,99603.81
2022-08-02T06:33:53.826Z,99604.03
2022-08-02T06:36:44.693Z,99608.31
2022-08-02T06:39:25.516Z,99603.53
2022-08-02T06:41:57.294Z,99602.31
2022-08-02T06:44:47.951Z,99602.50
2022-08-02T06:47:13.880Z,99607.03
2022-08-02T06:49:53.043Z,99621.03
2022-08-02T06:52:28.152Z,99614.31
2022-08-02T06:55:01.520Z,99625.13
2022-08-02T06:57:30.349Z,99613.75
2022-08-02T07:00:01.619Z,99618.44
2022-08-02T07:02:30.946Z,99605.53
2022-08-02T07:04:59.184Z,99608.59
2022-08-02T07:07:27.676Z,99603.97
2022-08-02T07:09:57.201Z,99610.19
2022-08-02T07:12:32.508Z,99603.41
2022-08-02T07:15:01.466Z,99598.38
2022-08-02T07:17:29.896Z,99597.47
2022-08-02T07:19:58.381Z,99597.69
2022-08-02T07:22:27.192Z,99601.34
2022-08-02T07:24:58.163Z,99606.84
2022-08-02T07:27:26.480Z,99600.28
2022-08-02T07:29:54.544Z,99598.22
2022-08-02T07:32:25.735Z,99601.47
2022-08-02T07:34:55.213Z,99597.28
2022-08-02T07:37:53.027Z,99599.81
2022-08-02T07:40:15.275Z,99592.62
2022-08-02T07:42:51.999Z,99587.59
2022-08-02T07:45:20.984Z,99591.19
2022-08-02T07:47:49.305Z,99592.78
2022-08-02T07:50:18.948Z,99588.87
2022-08-02T07:52:47.370Z,99588.38
2022-08-02T07:55:16.142Z,99595.94
2022-08-02T07:57:46.705Z,99589.34
2022-08-02T08:00:18.746Z,99588.63
2022-08-02T08:02:47.158Z,99589.87
2022-08-02T08:05:14.976Z,99586.81
2022-08-02T08:07:42.639Z,99594.47
2022-08-02T08:10:10.734Z,99590.75
2022-08-02T08:12:38.418Z,99591.13
2022-08-02T08:15:06.365Z,99591.94
2022-08-02T08:17:35.096Z,99592.06
2022-08-02T08:20:03.865Z,99601.41
2022-08-02T08:22:31.435Z,99602.34
2022-08-02T08:24:59.295Z,99598.81
2022-08-02T08:27:26.898Z,99595.44
2022-08-02T08:29:54.391Z,99592.47
2022-08-02T08:32:22.330Z,99602.03
2022-08-02T08:34:51.339Z,99605.75
2022-08-02T08:37:19.519Z,99606.47
2022-08-02T08:39:57.211Z,99609.03
2022-08-02T08:42:31.130Z,99608.19
2022-08-02T08:44:59.933Z,99599.00
2022-08-02T08:47:40.588Z,99601.53
2022-08-02T08:50:17.093Z,99598.72
2022-08-02T08:52:53.632Z,99610.00
2022-08-02T08:55:24.350Z,99598.75
2022-08-02T08:57:52.887Z,99601.28
2022-08-02T09:00:21.295Z,99603.38
2022-08-02T09:02:49.895Z,99609.75
2022-08-02T09:05:18.004Z,99611.78
2022-08-02T09:07:48.697Z,99609.84
2022-08-02T09:10:32.107Z,99601.94
2022-08-02T09:13:44.381Z,99610.16
2022-08-02T09:16:11.600Z,99609.12
2022-08-02T09:18:46.913Z,99602.91
2022-08-02T09:21:16.734Z,99610.06
2022-08-02T09:23:46.487Z,99607.88
2022-08-02T09:26:16.196Z,99613.66
2022-08-02T09:28:46.586Z,99615.72
2022-08-02T09:31:22.385Z,99615.41
2022-08-02T09:34:00.687Z,99606.88
2022-08-02T09:36:38.209Z,99606.19
2022-08-02T09:39:09.759Z,99613.88
2022-08-02T09:41:41.283Z,99601.75
2022-08-02T09:44:14.109Z,99604.84
2022-08-02T09:46:45.784Z,99611.81
2022-08-02T09:49:18.498Z,99614.16
2022-08-02T09:51:49.605Z,99606.19
2022-08-02T09:54:19.582Z,99606.31
2022-08-02T09:56:55.337Z,99602.25
2022-08-02T09:59:26.680Z,99597.13
2022-08-02T10:02:01.655Z,99592.59
2022-08-02T10:04:34.051Z,99589.03
2022-08-02T10:07:06.819Z,99595.28
2022-08-02T10:09:34.649Z,99596.84
2022-08-02T10:12:03.449Z,99598.78
2022-08-02T10:14:33.996Z,99594.19
2022-08-02T10:17:01.915Z,99590.66
2022-08-02T10:20:00.646Z,99581.41
2022-08-02T10:22:19.718Z,99577.75
2022-08-02T10:24:48.875Z,99574.50
2022-08-02T10:27:21.044Z,99588.50
2022-08-02T10:29:54.925Z,99580.16
2022-08-02T10:32:43.443Z,99578.25
2022-08-02T10:35:18.897Z,99573.16
2022-08-02T10:38:01.241Z,99580.53
2022-08-02T10:40:50.308Z,99562.91
2022-08-02T10:43:36.536Z,99564.75
2022-08-02T10:46:33.268Z,99572.72
2022-08-02T10:52:02.313Z,99570.97
2022-08-02T10:54:41.573Z,99571.66
2022-08-02T10:57:25.959Z,99565.44
2022-08-02T11:00:19.292Z,99574.50
2022-08-02T11:02:53.412Z,99573.84
2022-08-02T11:05:43.411Z,99568.72
2022-08-02T11:08:19.708Z,99566.41
2022-08-02T11:10:47.833Z,99569.28
2022-08-02T11:13:17.415Z,99559.56
2022-08-02T11:15:57.314Z,99559.09
2022-08-02T11:18:50.934Z,99551.03
2022-08-02T11:21:23.215Z,99543.91
2022-08-02T11:23:52.142Z,99562.69
2022-08-02T11:26:31.612Z,99567.81
2022-08-02T11:29:04.256Z,99563.28
2022-08-02T11:31:42.889Z,99561.47
2022-08-02T11:34:11.558Z,99561.63
2022-08-02T11:36:59.977Z,99557.81
2022-08-02T11:39:27.859Z,99550.72
2022-08-02T11:42:00.879Z,99552.97
2022-08-02T11:44:30.324Z,99550.81
2022-08-02T11:47:01.920Z,99555.34
2022-08-02T11:49:30.156Z,99556.41
2022-08-02T11:52:05.647Z,99554.47
2022-08-02T11:54:35.398Z,99545.03
2022-08-02T11:57:22.607Z,99552.56
2022-08-02T11:59:52.429Z,99550.38
2022-08-02T12:02:25.958Z,99553.56
2022-08-02T12:04:59.496Z,99550.22
2022-08-02T12:07:34.610Z,99561.59
2022-08-02T12:10:22.665Z,99560.59
2022-08-02T12:12:58.724Z,99553.00
2022-08-02T12:15:36.674Z,99547.91
2022-08-02T12:18:27.444Z,99546.28
2022-08-02T12:20:55.504Z,99549.97
2022-08-02T12:23:23.519Z,99548.12
2022-08-02T12:26:07.446Z,99549.91
2022-08-02T12:28:39.163Z,99541.75
2022-08-02T12:31:10.642Z,99543.47
2022-08-02T12:33:49.011Z,99538.03
2022-08-02T12:36:18.590Z,99529.16
2022-08-02T12:39:00.096Z,99539.28
2022-08-02T12:41:31.266Z,99537.84
2022-08-02T12:44:00.974Z,99537.63
2022-08-02T12:46:29.158Z,99529.00
2022-08-02T12:49:16.814Z,99524.25
2022-08-02T12:51:55.711Z,99524.12
2022-08-02T12:54:31.198Z,99526.97
2022-08-02T12:57:19.264Z,99534.31
2022-08-02T12:59:53.890Z,99522.69
2022-08-02T13:02:21.981Z,99522.81
2022-08-02T13:04:50.702Z,99524.44
2022-08-02T13:07:19.279Z,99516.97
2022-08-02T13:09:48.391Z,99521.78
2022-08-02T13:12:17.062Z,99522.97
2022-08-02T13:14:44.922Z,99527.44
2022-08-02T13:17:12.776Z,99521.31
2022-08-02T13:19:42.320Z,99510.78
2022-08-02T13:22:11.266Z,99514.53
2022-08-02T13:24:56.710Z,99507.63
2022-08-02T13:27:26.099Z,99512.84
2022-08-02T13:29:55.716Z,99510.09
2022-08-02T13:32:24.031Z,99508.03
2022-08-02T13:34:52.002Z,99509.28
2022-08-02T13:37:19.817Z,99512.87
2022-08-02T13:40:00.485Z,99511.00
2022-08-02T13:42:33.811Z,99510.34
2022-08-02T13:45:12.089Z,99516.22
2022-08-02T13:48:03.309Z,99502.03
2022-08-02T13:50:30.529Z,99508.16
2022-08-02T13:52:58.339Z,99510.28
2022-08-02T13:55:26.188Z,99505.97
2022-08-02T13:57:54.467Z,99501.94
2022-08-02T14:00:34.643Z,99502.50
2022-08-02T14:03:07.885Z,99498.72
2022-08-02T14:05:48.303Z,99505.16
2022-08-02T14:08:22.880Z,99498.63
2022-08-02T14:10:51.405Z,99494.91
2022-08-02T14:13:19.875Z,99499.16
2022-08-02T14:15:47.660Z,99499.94
2022-08-02T14:18:15.521Z,99496.53
2022-08-02T14:20:45.256Z,99486.44
2022-08-02T14:23:13.071Z,99500.81
2022-08-02T14:25:41.054Z,99499.16
2022-08-02T14:28:09.133Z,99495.19
2022-08-02T14:30:36.738Z,99502.28
2022-08-02T14:33:04.317Z,99491.84
2022-08-02T14:35:32.266Z,99485.25
2022-08-02T14:37:59.883Z,99490.37
2022-08-02T14:40:31.161Z,99492.91
2022-08-02T14:43:01.017Z,99485.13
2022-08-02T14:45:41.107Z,99496.56
2022-08-02T14:48:11.371Z,99485.72
2022-08-02T14:50:39.207Z,99485.31
2022-08-02T14:53:06.743Z,99485.94
2022-08-02T14:55:41.931Z,99486.25
2022-08-02T14:58:11.050Z,99492.16
2022-08-02T15:00:40.848Z,99500.75
2022-08-02T15:03:10.676Z,99501.41
2022-08-02T15:05:39.058Z,99495.50
2022-08-02T15:08:06.840Z,99495.66
2022-08-02T15:10:34.652Z,99496.88
2022-08-02T15:13:02.173Z,99497.72
2022-08-02T15:15:29.774Z,99506.22
2022-08-02T15:17:57.853Z,99503.06
2022-08-02T15:20:28.392Z,99502.34
2022-08-02T15:22:55.945Z,99506.03
2022-08-02T15:25:23.935Z,99501.81
2022-08-02T15:27:51.503Z,99494.41
2022-08-02T15:30:19.446Z,99493.38
2022-08-02T15:32:53.318Z,99500.44
2022-08-02T15:35:21.717Z,99501.47
2022-08-02T15:37:49.686Z,99490.47
2022-08-02T15:40:17.562Z,99496.25
2022-08-02T15:42:45.244Z,99493.13
2022-08-02T15:45:15.589Z,99495.88
2022-08-02T15:47:48.118Z,99490.78
2022-08-02T15:50:18.962Z,99494.09
2022-08-02T15:52:46.937Z,99495.31
2022-08-02T15:55:14.677Z,99502.56
2022-08-02T15:57:42.477Z,99494.59
2022-08-02T16:00:17.955Z,99501.25
2022-08-02T16:02:47.606Z,99502.94
2022-08-02T16:05:18.061Z,99500.56
2022-08-02T16:07:46.403Z,99494.50
2022-08-02T16:10:15.493Z,99493.06
2022-08-02T16:12:43.372Z,99487.19
2022-08-02T16:15:12.524Z,99503.28
2022-08-02T16:17:51.670Z,99503.03
2022-08-02T16:20:23.439Z,99502.53
2022-08-02T16:22:51.201Z,99506.03
2022-08-02T16:25:18.783Z,99506.63
2022-08-02T16:27:59.460Z,99501.78
2022-08-02T16:30:34.307Z,99503.19
2022-08-02T16:33:02.221Z,99501.97
2022-08-02T16:35:29.778Z,99509.03
2022-08-02T16:37:57.615Z,99503.72
2022-08-02T16:40:25.241Z,99492.75
2022-08-02T16:42:52.781Z,99503.53
2022-08-02T16:45:21.366Z,99502.88
2022-08-02T16:47:56.153Z,99505.34
2022-08-02T16:50:28.064Z,99501.91
2022-08-02T16:52:57.863Z,99501.62
2022-08-02T16:55:29.204Z,99506.69
2022-08-02T16:58:00.498Z,99504.13
2022-08-02T17:00:29.080Z,99504.81
2022-08-02T17:02:59.404Z,99510.12
2022-08-02T17:05:37.628Z,99502.28
2022-08-02T17:10:53.647Z,99508.47
2022-08-02T17:13:21.800Z,99512.34
2022-08-02T17:16:15.928Z,99513.78
2022-08-02T17:18:42.678Z,99519.16
2022-08-02T17:21:10.980Z,99520.84
2022-08-02T17:24:06.156Z,99517.38
2022-08-02T17:26:26.439Z,99516.19
2022-08-02T17:29:16.346Z,99526.19
2022-08-02T17:32:05.281Z,99528.66
2022-08-02T17:34:35.270Z,99524.28
2022-08-02T17:37:05.872Z,99542.25
2022-08-02T17:39:44.066Z,99537.44
2022-08-02T17:42:20.200Z,99544.13
2022-08-02T17:45:00.944Z,99544.25
2022-08-02T17:47:43.283Z,99539.69
2022-08-02T17:50:31.313Z,99545.78
2022-08-02T17:52:59.477Z,99541.63
2022-08-02T17:55:27.214Z,99547.53
2022-08-02T17:57:59.690Z,99548.63
2022-08-02T18:00:37.916Z,99558.59
2022-08-02T18:03:07.888Z,99564.16
2022-08-02T18:05:41.950Z,99560.59
2022-08-02T18:08:23.638Z,99562.72
2022-08-02T18:10:55.808Z,99564.13
2022-08-02T18:13:24.559Z,99566.16
2022-08-02T18:15:59.083Z,99572.22
2022-08-02T18:18:29.671Z,99569.69
2022-08-02T18:20:58.837Z,99573.44
2022-08-02T18:23:48.656Z,99578.22
2022-08-02T18:26:17.990Z,99580.75
2022-08-02T18:28:49.216Z,99592.66
2022-08-02T18:31:22.893Z,99598.97
2022-08-02T18:33:58.936Z,99597.81
2022-08-02T18:36:30.142Z,99594.69
2022-08-02T18:38:58.491Z,99599.03
2022-08-02T18:41:26.300Z,99600.19
2022-08-02T18:43:57.196Z,99605.13
2022-08-02T18:46:30.056Z,99600.13
2022-08-02T18:49:06.632Z,99609.88
2022-08-02T18:51:43.083Z,99608.81
2022-08-02T18:54:11.137Z,99612.44
2022-08-02T18:56:38.915Z,99614.88
2022-08-02T18:59:07.638Z,99611.94
2022-08-02T19:01:43.609Z,99613.28
2022-08-02T19:04:27.494Z,99612.31
2022-08-02T19:09:44.832Z,99619.87
2022-08-02T19:12:14.976Z,99624.81
2022-08-02T19:14:43.829Z,99623.47
2022-08-02T19:17:54.569Z,99625.53
2022-08-02T19:19:59.330Z,99630.91
2022-08-02T19:22:27.418Z,99630.06
2022-08-02T19:24:59.106Z,99628.88
2022-08-02T19:27:32.670Z,99627.91
2022-08-02T19:30:02.373Z,99635.00
2022-08-02T19:32:42.116Z,99631.44
2022-08-02T19:35:30.495Z,99624.75
2022-08-02T19:38:09.495Z,99634.34
2022-08-02T19:40:38.914Z,99625.44
2022-08-02T19:44:24.725Z,99631.53
2022-08-02T19:45:57.796Z,99627.72
2022-08-02T19:48:27.234Z,99628.78
2022-08-02T19:51:01.232Z,99632.88
2022-08-02T19:53:47.520Z,99625.50
2022-08-02T19:56:20.728Z,99620.34
2022-08-02T19:58:51.473Z,99627.69
2022-08-02T20:01:25.407Z,99632.12
2022-08-02T20:04:07.239Z,99629.75
2022-08-02T20:06:34.770Z,99632.59
2022-08-02T20:09:03.905Z,99630.31
2022-08-02T20:11:34.826Z,99627.19
2022-08-02T20:14:06.828Z,99628.88
2022-08-02T20:16:35.441Z,99625.22
2022-08-02T20:19:05.166Z,99628.25
2022-08-02T20:21:36.448Z,99633.13
2022-08-02T20:24:06.769Z,99637.22
2022-08-02T20:26:35.404Z,99632.72
2022-08-02T20:29:04.236Z,99627.47
2022-08-02T20:31:32.033Z,99627.47
2022-08-02T20:33:59.617Z,99628.44
2022-08-02T20:36:27.505Z,99624.84
2022-08-02T20:38:55.580Z,99628.31
2022-08-02T20:41:23.807Z,99627.09
2022-08-02T20:44:05.310Z,99628.78
2022-08-02T20:46:44.551Z,99627.41
2022-08-02T20:49:23.103Z,99627.78
2022-08-02T20:52:02.040Z,99629.00
2022-08-02T20:54:29.982Z,99632.44
2022-08-02T20:56:57.487Z,99635.97
2022-08-02T20:59:24.985Z,99636.56
2022-08-02T21:04:41.495Z,99630.22
2022-08-02T21:07:13.016Z,99621.31
2022-08-02T21:09:52.651Z,99630.38
2022-08-02T21:12:30.155Z,99622.13
2022-08-02T21:14:59.410Z,99629.09
2022-08-02T21:17:41.998Z,99634.87
2022-08-02T21:20:16.914Z,99634.66
2022-08-02T21:22:44.878Z,99645.13
2022-08-02T21:25:15.789Z,99643.47
2022-08-02T21:27:53.447Z,99648.16
2022-08-02T21:30:24.316Z,99643.72
2022-08-02T21:33:22.436Z,99642.72
2022-08-02T21:35:52.549Z,99650.66
2022-08-02T21:38:36.481Z,99646.16
2022-08-02T21:41:06.208Z,99648.13
2022-08-02T21:43:40.374Z,99655.00
2022-08-02T21:46:11.642Z,99652.03
2022-08-02T21:48:42.280Z,99647.00
2022-08-02T21:51:09.744Z,99652.47
2022-08-02T21:53:44.045Z,99642.31
2022-08-02T21:56:31.572Z,99650.03
2022-08-02T21:58:59.844Z,99657.06
2022-08-02T22:01:29.775Z,99643.22
2022-08-02T22:03:58.633Z,99644.22
2022-08-02T22:06:26.207Z,99642.69
2022-08-02T22:08:55.098Z,99640.09
2022-08-02T22:11:22.994Z,99637.91
2022-08-02T22:13:50.887Z,99638.62
2022-08-02T22:16:19.167Z,99631.62
2022-08-02T22:18:51.313Z,99636.53
2022-08-02T22:21:19.969Z,99632.09
2022-08-02T22:23:51.238Z,99638.38
2022-08-02T22:26:19.599Z,99633.03
2022-08-02T22:28:51.766Z,99633.50
2022-08-02T22:31:40.635Z,99634.56
2022-08-02T22:34:26.751Z,99638.31
2022-08-02T22:36:56.394Z,99636.03
2022-08-02T22:39:23.874Z,99642.19
2022-08-02T22:42:02.164Z,99639.88
2022-08-02T22:44:35.654Z,99644.28
2022-08-02T22:47:13.762Z,99645.13
2022-08-02T22:49:51.649Z,99653.81
2022-08-02T22:52:22.211Z,99656.59
2022-08-02T22:54:50.781Z,99650.87
2022-08-02T22:57:30.709Z,99651.34
2022-08-02T22:58:46.794Z,99619.87
2022-08-02T22:58:48.693Z,99501.72
2022-08-02T22:58:56.833Z,99635.25
2022-08-02T23:00:00.115Z,99659.31
2022-08-02T23:02:27.683Z,99657.44
2022-08-02T23:04:55.272Z,99650.06
2022-08-02T23:07:23.013Z,99661.03
2022-08-02T23:09:50.472Z,99657.84
2022-08-02T23:12:19.862Z,99656.38
2022-08-02T23:14:48.468Z,99656.34
2022-08-02T23:17:38.328Z,99651.28
2022-08-02T23:20:07.427Z,99655.72
2022-08-02T23:22:34.976Z,99656.38
2022-08-02T23:25:03.381Z,99652.38
2022-08-02T23:27:32.305Z,99651.34
2022-08-02T23:30:00.530Z,99648.84
2022-08-02T23:32:28.890Z,99659.34
2022-08-02T23:34:57.386Z,99656.41
2022-08-02T23:37:25.174Z,99655.12
2022-08-02T23:39:52.687Z,99649.03
2022-08-02T23:42:20.532Z,99657.87
2022-08-02T23:44:48.112Z,99655.38
2022-08-02T23:47:17.000Z,99641.22
2022-08-02T23:49:44.986Z,99655.16
2022-08-02T23:52:13.061Z,99649.22
2022-08-02T23:54:40.710Z,99648.84
2022-08-02T23:57:20.688Z,99654.31
2022-08-02T23:59:50.730Z,99659.78
